createdAt,value
2023-10-12T00:02:28.613Z,64.53
2023-10-12T00:05:02.870Z,64.81
2023-10-12T00:07:38.006Z,65.03
2023-10-12T00:10:12.891Z,64.53
2023-10-12T00:12:46.149Z,64.72
2023-10-12T00:15:30.719Z,64.55
2023-10-12T00:18:05.274Z,64.57
2023-10-12T00:20:31.973Z,64.79
2023-10-12T00:23:13.245Z,64.46
2023-10-12T00:25:49.690Z,64.19
2023-10-12T00:28:19.889Z,64.31
2023-10-12T00:30:51.521Z,63.89
2023-10-12T00:33:19.409Z,63.80
2023-10-12T00:35:50.456Z,63.68
2023-10-12T00:38:24.689Z,63.26
2023-10-12T00:41:03.933Z,63.15
2023-10-12T00:43:50.597Z,63.13
2023-10-12T00:46:23.162Z,63.02
2023-10-12T00:48:57.036Z,63.11
2023-10-12T00:51:24.347Z,62.83
2023-10-12T00:53:57.337Z,62.64
2023-10-12T00:56:26.506Z,62.62
2023-10-12T00:58:56.256Z,62.60
2023-10-12T01:02:10.842Z,62.82
2023-10-12T01:04:40.269Z,62.51
2023-10-12T01:07:12.228Z,62.61
2023-10-12T01:09:43.990Z,62.44
2023-10-12T01:12:19.447Z,62.46
2023-10-12T01:14:50.123Z,62.87
2023-10-12T01:17:36.911Z,62.72
2023-10-12T01:20:18.193Z,62.72
2023-10-12T01:22:45.521Z,62.73
2023-10-12T01:25:13.505Z,62.62
2023-10-12T01:27:44.976Z,62.93
2023-10-12T01:30:17.189Z,62.79
2023-10-12T01:32:43.743Z,62.81
2023-10-12T01:35:13.042Z,62.77
2023-10-12T01:37:49.144Z,62.55
2023-10-12T01:40:23.168Z,63.53
2023-10-12T01:42:49.935Z,63.01
2023-10-12T01:45:25.642Z,63.49
2023-10-12T01:47:57.059Z,63.65
2023-10-12T01:50:29.018Z,63.89
2023-10-12T01:52:59.934Z,63.92
2023-10-12T01:55:31.826Z,63.67
2023-10-12T01:57:59.825Z,63.49
2023-10-12T02:00:31.619Z,64.23
2023-10-12T02:03:13.886Z,64.34
2023-10-12T02:05:47.802Z,64.14
2023-10-12T02:08:21.278Z,64.04
2023-10-12T02:10:59.874Z,64.04
2023-10-12T02:13:26.602Z,63.83
2023-10-12T02:15:53.386Z,63.48
2023-10-12T02:18:21.024Z,63.45
2023-10-12T02:21:06.017Z,63.20
2023-10-12T02:23:52.074Z,63.12
2023-10-12T02:26:39.185Z,63.16
2023-10-12T02:29:10.977Z,63.04
2023-10-12T02:31:51.504Z,62.93
2023-10-12T02:34:27.017Z,62.93
2023-10-12T02:37:02.009Z,62.77
2023-10-12T02:39:29.751Z,62.91
2023-10-12T02:42:18.392Z,62.98
2023-10-12T02:44:55.854Z,62.96
2023-10-12T02:47:24.070Z,63.03
2023-10-12T02:49:52.278Z,63.16
2023-10-12T02:52:21.702Z,62.92
2023-10-12T02:54:51.503Z,63.18
2023-10-12T02:57:26.111Z,63.47
2023-10-12T02:59:58.639Z,63.19
2023-10-12T03:02:34.953Z,63.30
2023-10-12T03:05:09.724Z,63.81
2023-10-12T03:07:40.191Z,64.07
2023-10-12T03:10:08.669Z,64.05
2023-10-12T03:12:36.573Z,63.99
2023-10-12T03:15:14.402Z,63.86
2023-10-12T03:17:55.425Z,64.20
2023-10-12T03:20:23.975Z,63.95
2023-10-12T03:22:54.446Z,64.04
2023-10-12T03:25:21.628Z,64.15
2023-10-12T03:27:54.746Z,64.16
2023-10-12T03:30:35.633Z,64.05
2023-10-12T03:33:10.956Z,64.07
2023-10-12T03:35:49.672Z,63.78
2023-10-12T03:38:18.693Z,63.78
2023-10-12T03:40:51.915Z,63.81
2023-10-12T03:43:27.482Z,63.65
2023-10-12T03:46:14.279Z,63.77
2023-10-12T03:48:49.336Z,63.89
2023-10-12T03:51:22.800Z,63.82
2023-10-12T03:53:58.054Z,63.97
2023-10-12T03:56:30.090Z,63.63
2023-10-12T03:59:00.118Z,63.54
2023-10-12T04:01:32.364Z,63.46
2023-10-12T04:04:17.834Z,63.59
2023-10-12T04:06:58.010Z,63.68
2023-10-12T04:09:33.326Z,63.89
2023-10-12T04:12:33.648Z,64.43
2023-10-12T04:15:01.030Z,64.35
2023-10-12T04:17:27.503Z,64.37
2023-10-12T04:20:21.549Z,64.15
2023-10-12T04:22:53.341Z,64.74
2023-10-12T04:25:29.125Z,65.36
2023-10-12T04:28:14.519Z,65.22
2023-10-12T04:31:04.028Z,67.32
2023-10-12T04:33:52.279Z,66.31
2023-10-12T04:36:34.038Z,66.19
2023-10-12T04:39:11.047Z,66.70
2023-10-12T04:41:47.751Z,66.88
2023-10-12T04:44:30.229Z,66.45
2023-10-12T04:47:05.671Z,67.27
2023-10-12T04:49:34.552Z,67.69
2023-10-12T04:52:08.805Z,67.05
2023-10-12T04:54:50.919Z,67.40
2023-10-12T04:57:17.774Z,68.62
2023-10-12T04:59:50.119Z,67.96
2023-10-12T05:02:31.015Z,67.41
2023-10-12T05:05:08.352Z,67.97
2023-10-12T05:07:54.605Z,70.08
2023-10-12T05:10:35.358Z,68.44
2023-10-12T05:13:07.184Z,68.49
2023-10-12T05:16:01.982Z,69.04
2023-10-12T05:18:28.519Z,68.76
2023-10-12T05:20:55.121Z,70.47
2023-10-12T05:23:22.787Z,69.65
2023-10-12T05:25:49.779Z,71.31
2023-10-12T05:28:22.386Z,71.29
2023-10-12T05:30:52.064Z,69.29
2023-10-12T05:33:37.129Z,69.49
2023-10-12T05:36:11.661Z,71.12
2023-10-12T05:38:52.930Z,69.72
2023-10-12T05:41:36.130Z,71.41
2023-10-12T05:44:04.858Z,71.35
2023-10-12T05:46:35.370Z,70.02
2023-10-12T05:49:03.806Z,71.82
2023-10-12T05:51:30.462Z,70.23
2023-10-12T05:54:03.473Z,70.34
2023-10-12T05:56:35.587Z,71.24
2023-10-12T05:59:02.447Z,70.44
2023-10-12T06:04:07.714Z,69.79
2023-10-12T06:06:42.326Z,70.96
2023-10-12T06:09:22.279Z,69.64
2023-10-12T06:11:50.133Z,70.47
2023-10-12T06:14:21.699Z,70.22
2023-10-12T06:16:56.060Z,71.08
2023-10-12T06:19:30.517Z,69.95
2023-10-12T06:22:01.528Z,71.88
2023-10-12T06:24:35.138Z,70.27
2023-10-12T06:27:20.459Z,70.68
2023-10-12T06:29:55.464Z,70.50
2023-10-12T06:32:33.665Z,69.98
2023-10-12T06:35:07.945Z,69.34
2023-10-12T06:37:55.959Z,67.44
2023-10-12T06:40:30.327Z,67.55
2023-10-12T06:43:11.260Z,67.49
2023-10-12T06:45:48.198Z,67.16
2023-10-12T06:48:24.916Z,66.75
2023-10-12T06:51:03.644Z,67.00
2023-10-12T06:53:37.634Z,66.99
2023-10-12T06:56:29.416Z,66.95
2023-10-12T06:59:22.827Z,66.62
2023-10-12T07:01:50.157Z,66.66
2023-10-12T07:04:19.009Z,66.11
2023-10-12T07:07:06.445Z,66.42
2023-10-12T07:09:41.546Z,66.10
2023-10-12T07:12:21.942Z,66.62
2023-10-12T07:14:49.017Z,66.72
2023-10-12T07:17:16.577Z,66.79
2023-10-12T07:19:48.492Z,66.93
2023-10-12T07:22:20.156Z,66.58
2023-10-12T07:24:47.972Z,66.38
2023-10-12T07:27:19.370Z,66.32
2023-10-12T07:29:48.450Z,65.94
2023-10-12T07:32:34.157Z,65.66
2023-10-12T07:35:08.760Z,65.86
2023-10-12T07:37:42.378Z,66.15
2023-10-12T07:40:19.644Z,65.59
2023-10-12T07:42:48.537Z,65.77
2023-10-12T07:45:19.593Z,66.72
2023-10-12T07:47:50.461Z,65.91
2023-10-12T07:50:26.725Z,66.15
2023-10-12T07:53:06.375Z,65.97
2023-10-12T07:55:42.830Z,66.28
2023-10-12T07:58:15.627Z,66.24
2023-10-12T08:00:53.174Z,66.40
2023-10-12T08:03:20.765Z,65.79
2023-10-12T08:05:57.910Z,66.06
2023-10-12T08:08:35.108Z,65.52
2023-10-12T08:11:10.420Z,65.91
2023-10-12T08:13:40.804Z,65.67
2023-10-12T08:16:18.457Z,66.10
2023-10-12T08:19:00.852Z,65.93
2023-10-12T08:21:33.101Z,65.82
2023-10-12T08:24:10.951Z,65.85
2023-10-12T08:26:44.134Z,65.81
2023-10-12T08:29:23.789Z,65.75
2023-10-12T08:31:56.719Z,65.07
2023-10-12T08:34:43.129Z,64.86
2023-10-12T08:37:12.553Z,64.59
2023-10-12T08:39:53.975Z,64.47
2023-10-12T08:42:24.538Z,64.30
2023-10-12T08:44:51.620Z,64.24
2023-10-12T08:47:27.049Z,63.93
2023-10-12T08:49:54.647Z,64.15
2023-10-12T08:52:34.712Z,63.73
2023-10-12T08:55:13.017Z,63.76
2023-10-12T08:57:53.926Z,63.48
2023-10-12T09:00:25.765Z,63.72
2023-10-12T09:03:00.873Z,63.61
2023-10-12T09:05:29.938Z,63.58
2023-10-12T09:08:13.787Z,63.16
2023-10-12T09:10:58.988Z,63.01
2023-10-12T09:13:46.974Z,62.65
2023-10-12T09:16:16.991Z,62.19
2023-10-12T09:18:48.253Z,61.94
2023-10-12T09:21:22.017Z,61.79
2023-10-12T09:24:06.632Z,61.51
2023-10-12T09:26:35.621Z,60.77
2023-10-12T09:29:07.166Z,60.72
2023-10-12T09:31:39.689Z,60.27
2023-10-12T09:34:12.132Z,60.07
2023-10-12T09:36:45.000Z,60.15
2023-10-12T09:39:16.252Z,59.85
2023-10-12T09:41:55.660Z,60.08
2023-10-12T09:44:30.094Z,59.89
2023-10-12T09:46:57.903Z,59.89
2023-10-12T09:49:30.583Z,59.52
2023-10-12T09:52:01.130Z,59.53
2023-10-12T09:54:58.304Z,59.52
2023-10-12T09:57:28.776Z,59.49
2023-10-12T10:00:00.886Z,59.39
2023-10-12T10:02:35.893Z,59.32
2023-10-12T10:05:18.793Z,59.19
2023-10-12T10:07:56.759Z,58.72
2023-10-12T10:10:37.645Z,58.28
2023-10-12T10:13:21.979Z,57.77
2023-10-12T10:16:00.681Z,56.97
2023-10-12T10:18:30.559Z,57.21
2023-10-12T10:21:04.852Z,56.47
2023-10-12T10:23:38.504Z,56.54
2023-10-12T10:26:35.820Z,56.60
2023-10-12T10:29:18.781Z,57.39
2023-10-12T10:31:52.125Z,57.63
2023-10-12T10:34:25.703Z,57.33
2023-10-12T10:36:54.732Z,57.17
2023-10-12T10:39:21.468Z,56.72
2023-10-12T10:41:48.054Z,56.37
2023-10-12T10:44:23.768Z,56.37
2023-10-12T10:46:58.846Z,55.09
2023-10-12T10:49:34.795Z,54.99
2023-10-12T10:52:04.834Z,54.16
2023-10-12T10:54:34.279Z,53.47
2023-10-12T10:57:05.918Z,52.57
2023-10-12T10:59:34.853Z,51.84
2023-10-12T11:02:01.450Z,51.68
2023-10-12T11:04:48.276Z,51.56
2023-10-12T11:07:19.505Z,50.83
2023-10-12T11:09:52.899Z,50.52
2023-10-12T11:12:26.061Z,50.18
2023-10-12T11:15:06.998Z,49.22
2023-10-12T11:17:42.312Z,48.94
2023-10-12T11:20:28.594Z,49.40
2023-10-12T11:22:56.338Z,48.81
2023-10-12T11:25:23.398Z,48.38
2023-10-12T11:27:52.769Z,48.70
2023-10-12T11:30:36.224Z,47.86
2023-10-12T11:33:10.679Z,47.48
2023-10-12T11:35:41.961Z,47.88
2023-10-12T11:38:35.240Z,47.92
2023-10-12T11:41:14.852Z,48.13
2023-10-12T11:43:54.215Z,48.61
2023-10-12T11:46:24.912Z,48.33
2023-10-12T11:49:06.819Z,48.46
2023-10-12T11:51:41.174Z,48.34
2023-10-12T11:54:11.310Z,48.10
2023-10-12T11:56:47.507Z,48.00
2023-10-12T11:59:23.468Z,48.04
2023-10-12T12:01:55.893Z,47.55
2023-10-12T12:04:35.122Z,47.63
2023-10-12T12:07:02.405Z,47.67
2023-10-12T12:09:29.014Z,46.71
2023-10-12T12:11:59.021Z,46.55
2023-10-12T12:14:27.240Z,46.05
2023-10-12T12:16:53.757Z,45.74
2023-10-12T12:19:25.289Z,45.86
2023-10-12T12:21:54.240Z,44.87
2023-10-12T12:24:24.730Z,44.33
2023-10-12T12:26:53.306Z,44.42
2023-10-12T12:29:38.300Z,44.55
2023-10-12T12:32:12.786Z,44.17
2023-10-12T12:34:39.637Z,44.37
2023-10-12T12:37:09.996Z,44.28
2023-10-12T12:39:36.879Z,44.36
2023-10-12T12:42:04.086Z,44.75
2023-10-12T12:44:30.607Z,44.94
2023-10-12T12:46:57.627Z,45.16
2023-10-12T12:49:25.594Z,44.92
2023-10-12T12:51:52.790Z,45.14
2023-10-12T12:54:19.671Z,45.49
2023-10-12T12:56:47.140Z,45.85
2023-10-12T12:59:13.630Z,46.20
2023-10-12T13:01:40.452Z,46.36
2023-10-12T13:04:10.195Z,46.43
2023-10-12T13:06:36.853Z,46.29
2023-10-12T13:09:04.027Z,46.48
2023-10-12T13:11:30.721Z,46.18
2023-10-12T13:13:57.447Z,46.05
2023-10-12T13:16:24.327Z,46.16
2023-10-12T13:18:51.204Z,46.23
2023-10-12T13:21:18.393Z,46.42
2023-10-12T13:23:46.426Z,46.49
2023-10-12T13:26:15.572Z,46.53
2023-10-12T13:28:43.965Z,47.17
2023-10-12T13:31:12.141Z,46.67
2023-10-12T13:33:40.833Z,46.49
2023-10-12T13:36:09.869Z,46.82
2023-10-12T13:38:38.446Z,46.46
2023-10-12T13:41:06.676Z,46.62
2023-10-12T13:43:35.976Z,46.39
2023-10-12T13:46:09.601Z,46.66
2023-10-12T13:48:40.230Z,46.76
2023-10-12T13:51:19.132Z,46.92
2023-10-12T13:53:47.454Z,47.10
2023-10-12T13:56:14.505Z,46.96
2023-10-12T13:58:42.742Z,46.71
2023-10-12T14:01:16.490Z,47.15
2023-10-12T14:03:47.187Z,46.73
2023-10-12T14:06:14.358Z,46.69
2023-10-12T14:08:44.790Z,46.90
2023-10-12T14:11:16.205Z,46.96
2023-10-12T14:13:42.876Z,46.83
2023-10-12T14:16:10.761Z,46.78
2023-10-12T14:18:41.337Z,47.13
2023-10-12T14:21:12.455Z,47.53
2023-10-12T14:23:46.780Z,47.83
2023-10-12T14:26:22.869Z,47.58
2023-10-12T14:28:55.749Z,47.52
2023-10-12T14:31:23.795Z,48.09
2023-10-12T14:33:53.609Z,48.01
2023-10-12T14:36:20.679Z,47.61
2023-10-12T14:38:47.544Z,47.57
2023-10-12T14:41:18.569Z,47.48
2023-10-12T14:43:49.552Z,47.70
2023-10-12T14:46:20.968Z,48.28
2023-10-12T14:48:53.095Z,48.09
2023-10-12T14:51:26.863Z,49.51
2023-10-12T14:53:53.826Z,49.06
2023-10-12T14:56:24.741Z,48.82
2023-10-12T14:58:52.280Z,49.38
2023-10-12T15:01:21.534Z,49.46
2023-10-12T15:03:48.292Z,49.69
2023-10-12T15:06:14.971Z,50.48
2023-10-12T15:08:42.533Z,50.72
2023-10-12T15:11:10.394Z,51.55
2023-10-12T15:13:42.090Z,51.32
2023-10-12T15:16:13.006Z,51.90
2023-10-12T15:18:42.604Z,51.99
2023-10-12T15:23:43.905Z,51.83
2023-10-12T15:26:13.342Z,51.69
2023-10-12T15:28:40.043Z,52.58
2023-10-12T15:31:07.627Z,52.99
2023-10-12T15:33:34.605Z,53.02
2023-10-12T15:36:01.395Z,54.01
2023-10-12T15:38:32.678Z,54.38
2023-10-12T15:41:03.464Z,53.61
2023-10-12T15:43:30.201Z,54.07
2023-10-12T15:45:57.054Z,53.88
2023-10-12T15:48:28.129Z,54.64
2023-10-12T15:50:55.705Z,54.02
2023-10-12T15:53:24.233Z,54.70
2023-10-12T15:55:51.752Z,55.64
2023-10-12T15:58:18.643Z,55.72
2023-10-12T16:00:46.671Z,55.47
2023-10-12T16:03:15.670Z,55.29
2023-10-12T16:05:44.042Z,55.65
2023-10-12T16:08:16.424Z,56.29
2023-10-12T16:10:50.352Z,56.14
2023-10-12T16:13:17.577Z,57.85
2023-10-12T16:15:44.715Z,57.73
2023-10-12T16:18:13.286Z,57.00
2023-10-12T16:20:40.485Z,57.45
2023-10-12T16:23:07.259Z,57.93
2023-10-12T16:25:34.097Z,58.19
2023-10-12T16:28:00.950Z,58.21
2023-10-12T16:30:31.465Z,59.27
2023-10-12T16:32:58.106Z,58.33
2023-10-12T16:35:25.435Z,59.86
2023-10-12T16:38:00.828Z,59.56
2023-10-12T16:40:30.242Z,59.31
2023-10-12T16:42:57.536Z,60.64
2023-10-12T16:45:24.479Z,60.76
2023-10-12T16:47:52.343Z,60.26
2023-10-12T16:50:19.912Z,59.52
2023-10-12T16:52:50.139Z,59.28
2023-10-12T16:55:18.322Z,60.12
2023-10-12T16:57:48.843Z,60.37
2023-10-12T17:00:19.303Z,59.95
2023-10-12T17:02:47.101Z,60.67
2023-10-12T17:05:15.259Z,61.48
2023-10-12T17:07:45.932Z,63.02
2023-10-12T17:10:27.065Z,62.52
2023-10-12T17:12:54.190Z,63.04
2023-10-12T17:15:21.646Z,62.52
2023-10-12T17:17:49.114Z,63.53
2023-10-12T17:20:17.364Z,63.02
2023-10-12T17:22:44.606Z,64.06
2023-10-12T17:25:11.538Z,64.47
2023-10-12T17:27:38.230Z,64.77
2023-10-12T17:30:08.063Z,64.57
2023-10-12T17:32:35.229Z,63.61
2023-10-12T17:35:05.348Z,63.26
2023-10-12T17:37:35.405Z,64.34
2023-10-12T17:40:01.944Z,63.64
2023-10-12T17:42:29.938Z,64.13
2023-10-12T17:44:58.780Z,64.29
2023-10-12T17:47:25.640Z,64.77
2023-10-12T17:49:52.139Z,65.56
2023-10-12T17:52:19.014Z,64.82
2023-10-12T17:54:45.522Z,65.44
2023-10-12T17:57:12.146Z,65.68
2023-10-12T17:59:48.191Z,65.75
2023-10-12T18:02:15.657Z,65.80
2023-10-12T18:04:46.040Z,66.51
2023-10-12T18:07:13.607Z,66.58
2023-10-12T18:09:43.619Z,66.27
2023-10-12T18:12:12.060Z,65.82
2023-10-12T18:14:39.837Z,67.02
2023-10-12T18:17:06.533Z,66.10
2023-10-12T18:19:34.029Z,67.47
2023-10-12T18:22:00.790Z,66.88
2023-10-12T18:24:27.709Z,67.03
2023-10-12T18:26:57.053Z,67.00
2023-10-12T18:29:23.599Z,67.29
2023-10-12T18:31:50.967Z,66.30
2023-10-12T18:34:18.111Z,67.07
2023-10-12T18:36:49.722Z,66.68
2023-10-12T18:39:22.951Z,67.14
2023-10-12T18:41:49.623Z,68.30
2023-10-12T18:44:16.147Z,68.38
2023-10-12T18:46:44.722Z,67.84
2023-10-12T18:49:13.093Z,67.44
2023-10-12T18:51:39.961Z,68.80
2023-10-12T18:54:09.635Z,68.44
2023-10-12T18:56:37.147Z,68.82
2023-10-12T18:59:08.676Z,67.93
2023-10-12T19:01:35.934Z,67.49
2023-10-12T19:04:02.704Z,67.52
2023-10-12T19:06:31.066Z,67.67
2023-10-12T19:08:59.029Z,67.77
2023-10-12T19:11:25.702Z,68.25
2023-10-12T19:13:52.443Z,67.92
2023-10-12T19:16:20.753Z,68.20
2023-10-12T19:18:49.004Z,68.26
2023-10-12T19:21:19.811Z,69.53
2023-10-12T19:23:47.667Z,69.32
2023-10-12T19:26:16.047Z,69.54
2023-10-12T19:28:45.232Z,69.70
2023-10-12T19:31:13.973Z,68.79
2023-10-12T19:33:42.812Z,68.42
2023-10-12T19:36:11.110Z,68.33
2023-10-12T19:38:41.417Z,67.74
2023-10-12T19:41:12.893Z,68.20
2023-10-12T19:43:41.235Z,68.31
2023-10-12T19:46:12.848Z,68.78
2023-10-12T19:48:40.545Z,68.63
2023-10-12T19:51:14.918Z,69.58
2023-10-12T19:53:42.925Z,69.48
2023-10-12T19:56:20.091Z,68.64
2023-10-12T19:58:53.401Z,68.85
2023-10-12T20:01:23.856Z,69.30
2023-10-12T20:03:51.951Z,69.61
2023-10-12T20:06:20.889Z,68.61
2023-10-12T20:08:49.136Z,68.54
2023-10-12T20:11:17.268Z,69.23
2023-10-12T20:13:46.315Z,69.28
2023-10-12T20:16:21.401Z,69.08
2023-10-12T20:18:48.190Z,71.45
2023-10-12T20:21:17.694Z,71.00
2023-10-12T20:23:46.018Z,70.82
2023-10-12T20:26:13.565Z,71.20
2023-10-12T20:28:40.325Z,70.89
2023-10-12T20:31:09.076Z,70.47
2023-10-12T20:33:36.086Z,70.29
2023-10-12T20:36:04.395Z,70.77
2023-10-12T20:38:33.879Z,70.38
2023-10-12T20:41:01.316Z,69.98
2023-10-12T20:43:28.323Z,70.43
2023-10-12T20:45:58.639Z,70.05
2023-10-12T20:48:29.156Z,70.22
2023-10-12T20:51:01.504Z,70.09
2023-10-12T20:53:31.100Z,69.89
2023-10-12T20:55:57.760Z,69.94
2023-10-12T20:58:32.162Z,70.11
2023-10-12T21:00:59.170Z,69.86
2023-10-12T21:03:37.637Z,69.73
2023-10-12T21:06:09.165Z,69.55
2023-10-12T21:08:44.192Z,70.06
2023-10-12T21:11:20.452Z,69.93
2023-10-12T21:13:50.637Z,69.67
2023-10-12T21:16:17.372Z,70.63
2023-10-12T21:18:44.222Z,70.54
2023-10-12T21:21:14.447Z,70.18
2023-10-12T21:23:51.795Z,69.98
2023-10-12T21:26:28.042Z,70.89
2023-10-12T21:28:58.348Z,70.38
2023-10-12T21:31:28.993Z,70.22
2023-10-12T21:34:02.303Z,69.72
2023-10-12T21:36:33.861Z,70.14
2023-10-12T21:39:00.653Z,69.81
2023-10-12T21:41:37.558Z,69.24
2023-10-12T21:44:10.784Z,69.63
2023-10-12T21:46:40.441Z,69.78
2023-10-12T21:49:08.456Z,69.67
2023-10-12T21:51:36.145Z,69.89
2023-10-12T21:54:07.937Z,70.05
2023-10-12T21:56:35.657Z,70.07
2023-10-12T21:59:03.521Z,70.23
2023-10-12T22:02:03.947Z,70.01
2023-10-12T22:04:38.245Z,70.28
2023-10-12T22:07:08.649Z,70.82
2023-10-12T22:09:45.872Z,70.49
2023-10-12T22:12:20.385Z,71.32
2023-10-12T22:14:49.882Z,72.02
2023-10-12T22:17:27.149Z,71.36
2023-10-12T22:19:55.212Z,70.91
2023-10-12T22:22:24.674Z,71.00
2023-10-12T22:24:54.217Z,70.98
2023-10-12T22:27:22.556Z,71.65
2023-10-12T22:29:49.188Z,71.63
2023-10-12T22:32:15.888Z,71.27
2023-10-12T22:34:42.503Z,71.23
2023-10-12T22:37:12.845Z,70.77
2023-10-12T22:39:40.482Z,70.81
2023-10-12T22:42:07.050Z,72.38
2023-10-12T22:44:34.349Z,71.59
2023-10-12T22:47:01.987Z,71.53
2023-10-12T22:49:29.514Z,71.44
2023-10-12T22:51:56.100Z,71.86
2023-10-12T22:54:23.484Z,72.15
2023-10-12T22:56:50.299Z,72.50
2023-10-12T22:59:18.696Z,73.61
2023-10-12T23:01:46.659Z,73.31
2023-10-12T23:04:13.865Z,72.05
2023-10-12T23:06:40.572Z,72.17
2023-10-12T23:09:08.587Z,73.10
2023-10-12T23:11:35.364Z,74.27
2023-10-12T23:14:02.177Z,76.82
2023-10-12T23:16:31.673Z,77.04
2023-10-12T23:19:03.093Z,77.26
2023-10-12T23:21:33.468Z,75.05
2023-10-12T23:24:10.559Z,75.30
2023-10-12T23:26:38.472Z,75.92
2023-10-12T23:29:05.974Z,74.58
2023-10-12T23:31:36.614Z,74.22
2023-10-12T23:34:16.670Z,74.33
2023-10-12T23:36:44.772Z,74.69
2023-10-12T23:39:14.654Z,76.35
2023-10-12T23:41:48.376Z,75.06
2023-10-12T23:44:26.642Z,75.25
2023-10-12T23:46:53.553Z,74.75
2023-10-12T23:49:21.310Z,75.37
2023-10-12T23:51:48.805Z,77.15
2023-10-12T23:54:27.662Z,77.48
2023-10-12T23:57:04.229Z,75.83
2023-10-12T23:59:33.693Z,75.87
